Time;durP1;ratioP1;P1;durP2;ratioP2;P2;SDS_P1;SDS_P2;PMS_P1;PMS_P2;Temp;Humidity;BMP_temperature;BMP_pressure;BME280_temperature;BME280_humidity;BME280_pressure;Samples;Min_cycle;Max_cycle;Signal;HPM_P1;HPM_P2
2023/09/03 00:00:43;;;;;;;7.25;5.97;;;;;;;15.04;100.00;101763.69;5013396;28;20137;-81
2023/09/03 00:03:10;;;;;;;8.30;6.03;;;;;;;15.01;100.00;101756.69;5015397;28;20448;-81
2023/09/03 00:05:36;;;;;;;11.63;6.20;;;;;;;14.99;100.00;101762.84;5014363;28;20135;-81
2023/09/03 00:08:03;;;;;;;8.43;6.50;;;;;;;14.96;100.00;101749.72;5017683;28;20136;-80
2023/09/03 00:10:34;;;;;;;5.18;4.70;;;;;;;14.93;100.00;101755.88;5015910;28;20041;-83
2023/09/03 00:13:01;;;;;;;9.70;6.90;;;;;;;14.91;100.00;101759.44;5018506;28;20049;-81
2023/09/03 00:15:27;;;;;;;8.05;6.05;;;;;;;14.87;100.00;101751.56;5002509;28;20064;-80
2023/09/03 00:17:54;;;;;;;7.65;6.50;;;;;;;14.86;100.00;101751.53;5019156;28;20045;-83
2023/09/03 00:20:20;;;;;;;6.00;5.47;;;;;;;14.83;100.00;101748.94;5022867;28;20041;-82
2023/09/03 00:22:47;;;;;;;7.82;6.70;;;;;;;14.83;100.00;101755.09;5018323;28;20040;-85
2023/09/03 00:25:14;;;;;;;7.13;6.43;;;;;;;14.80;100.00;101757.75;5044622;28;20048;-87
2023/09/03 00:27:40;;;;;;;7.90;6.70;;;;;;;14.74;100.00;101759.56;5012963;28;20042;-83
2023/09/03 00:30:07;;;;;;;7.18;6.47;;;;;;;14.75;100.00;101753.44;5017668;28;20397;-80
2023/09/03 00:32:34;;;;;;;9.02;6.38;;;;;;;14.68;100.00;101744.69;5018561;28;20147;-81
2023/09/03 00:35:00;;;;;;;7.85;7.07;;;;;;;14.65;100.00;101747.34;5016962;28;20037;-82
2023/09/03 00:37:27;;;;;;;10.43;6.30;;;;;;;14.59;100.00;101747.34;5028287;28;20052;-81
2023/09/03 00:39:53;;;;;;;6.72;6.10;;;;;;;14.58;100.00;101766.72;5011454;28;20046;-84
2023/09/03 00:42:20;;;;;;;9.25;6.82;;;;;;;14.56;100.00;101766.69;5020932;28;20041;-81
2023/09/03 00:44:47;;;;;;;7.80;7.00;;;;;;;14.54;100.00;101773.75;5015860;28;20140;-84
2023/09/03 00:47:14;;;;;;;8.35;6.80;;;;;;;14.47;100.00;101778.19;5010470;28;20065;-82
2023/09/03 00:49:43;;;;;;;9.52;7.25;;;;;;;14.37;100.00;101780.00;5034391;28;20493;-80
2023/09/03 00:52:11;;;;;;;9.23;7.28;;;;;;;14.28;100.00;101780.06;5019453;28;20445;-84
2023/09/03 00:54:38;;;;;;;9.02;8.05;;;;;;;14.22;100.00;101782.72;5001931;28;20073;-81
2023/09/03 00:57:08;;;;;;;9.73;7.38;;;;;;;14.19;100.00;101791.53;5014623;28;20052;-81
2023/09/03 00:59:34;;;;;;;7.72;7.00;;;;;;;14.15;100.00;101805.59;5035498;28;20041;-81
2023/09/03 01:02:01;;;;;;;11.50;7.72;;;;;;;14.10;100.00;101807.38;5034761;28;20057;-82
2023/09/03 01:04:28;;;;;;;11.60;7.80;;;;;;;14.08;100.00;101809.16;5013916;28;20413;-84
2023/09/03 01:06:55;;;;;;;8.27;7.43;;;;;;;14.09;100.00;101812.66;5015657;28;20041;-80
2023/09/03 01:09:21;;;;;;;8.68;6.97;;;;;;;14.05;100.00;101812.69;5019315;28;20049;-81
2023/09/03 01:11:59;;;;;;;8.93;7.22;;;;;;;14.03;100.00;101813.56;5014548;28;20112;-80
2023/09/03 01:14:40;;;;;;;12.02;8.27;;;;;;;14.02;100.00;101801.28;5018272;28;20581;-87
2023/09/03 01:17:41;;;;;;;10.85;7.50;;;;;;;14.00;100.00;101789.88;5025569;28;20086;-87
2023/09/03 01:20:26;;;;;;;8.20;7.40;;;;;;;13.97;100.00;101777.59;5033919;28;20038;-84
2023/09/03 01:23:38;;;;;;;8.48;7.35;;;;;;;13.97;100.00;101782.88;5043000;28;20352;-82
2023/09/03 01:26:31;;;;;;;13.77;7.55;;;;;;;13.97;100.00;101789.91;5021077;28;20125;-81
2023/09/03 01:29:00;;;;;;;8.07;7.28;;;;;;;13.97;100.00;101788.13;5027436;28;20045;-82
2023/09/03 01:31:27;;;;;;;10.65;8.18;;;;;;;13.92;100.00;101803.06;5043862;28;20069;-82
2023/09/03 01:34:02;;;;;;;11.15;8.77;;;;;;;13.90;100.00;101805.72;5019782;28;20061;-80
2023/09/03 01:36:32;;;;;;;9.52;8.02;;;;;;;13.87;100.00;101805.75;5023060;28;20129;-86
2023/09/03 01:39:03;;;;;;;11.07;7.72;;;;;;;13.85;100.00;101804.00;5025778;28;20057;-84
2023/09/03 01:41:38;;;;;;;12.00;7.68;;;;;;;13.82;100.00;101811.88;5023973;28;20046;-82
2023/09/03 01:44:05;;;;;;;9.55;7.15;;;;;;;13.79;100.00;101831.19;5061243;28;20051;-86
2023/09/03 01:47:02;;;;;;;14.30;8.35;;;;;;;13.81;100.00;101831.22;5021829;28;20081;-82
2023/09/03 01:50:19;;;;;;;8.32;7.05;;;;;;;13.86;100.00;101824.19;5006339;28;20152;-83
2023/09/03 01:53:18;;;;;;;8.80;7.55;;;;;;;13.85;100.00;101809.25;5021667;28;20051;-81
2023/09/03 01:55:51;;;;;;;7.63;6.88;;;;;;;13.81;100.00;101804.91;5023464;28;20053;-81
2023/09/03 01:58:20;;;;;;;9.83;7.80;;;;;;;13.79;100.00;101812.78;5021643;28;20428;-80
2023/09/03 02:00:47;;;;;;;8.90;7.95;;;;;;;13.77;100.00;101811.06;5049227;28;20358;-85
2023/09/03 02:03:14;;;;;;;7.93;7.20;;;;;;;13.76;100.00;101810.16;5030394;28;20413;-81
2023/09/03 02:05:41;;;;;;;7.68;6.95;;;;;;;13.75;100.00;101805.78;5020539;28;20068;-83
2023/09/03 02:08:07;;;;;;;9.77;7.38;;;;;;;13.74;100.00;101804.06;5022581;28;20077;-86
2023/09/03 02:10:34;;;;;;;10.88;7.72;;;;;;;13.73;100.00;101800.53;5022488;28;20819;-82
2023/09/03 02:13:02;;;;;;;8.73;7.82;;;;;;;13.73;100.00;101797.88;5022828;28;20053;-82
2023/09/03 02:15:29;;;;;;;8.60;7.47;;;;;;;13.72;100.00;101782.13;5021494;28;20133;-82
2023/09/03 02:17:55;;;;;;;10.25;8.20;;;;;;;13.65;100.00;101770.75;5023601;28;20092;-81
2023/09/03 02:20:22;;;;;;;9.50;8.50;;;;;;;13.67;100.00;101783.88;5021925;28;20049;-80
2023/09/03 02:22:48;;;;;;;14.77;9.80;;;;;;;13.63;100.00;101776.88;5021261;28;20041;-81
2023/09/03 02:25:15;;;;;;;10.13;8.38;;;;;;;13.58;100.00;101779.53;5023721;28;20168;-82
2023/09/03 02:27:41;;;;;;;10.05;8.15;;;;;;;13.55;100.00;101775.16;5024286;28;20409;-81
2023/09/03 02:30:08;;;;;;;14.15;8.68;;;;;;;13.54;100.00;101781.28;5019148;28;20093;-82
2023/09/03 02:32:35;;;;;;;12.02;9.05;;;;;;;13.53;100.00;101771.66;5018090;28;20050;-83
2023/09/03 02:35:02;;;;;;;9.38;8.35;;;;;;;13.54;100.00;101775.16;5018089;28;20045;-86
2023/09/03 02:37:28;;;;;;;10.82;8.65;;;;;;;13.51;100.00;101778.66;5020367;28;20044;-81
2023/09/03 02:39:55;;;;;;;10.38;8.57;;;;;;;13.47;100.00;101779.56;5018104;28;20119;-84
2023/09/03 02:42:24;;;;;;;10.68;8.90;;;;;;;13.44;100.00;101786.59;5018920;28;20048;-80
2023/09/03 02:44:50;;;;;;;10.15;7.47;;;;;;;13.43;100.00;101787.47;5014458;28;20107;-83
2023/09/03 02:47:17;;;;;;;10.80;8.40;;;;;;;13.42;100.00;101781.34;5014026;28;20056;-83
2023/09/03 02:49:43;;;;;;;10.13;8.95;;;;;;;13.40;100.00;101780.44;5016902;28;20038;-81
2023/09/03 02:52:10;;;;;;;10.60;9.23;;;;;;;13.42;100.00;101775.22;5005947;28;20054;-83
2023/09/03 02:54:36;;;;;;;13.75;9.30;;;;;;;13.40;100.00;101772.56;5017874;28;20060;-84
2023/09/03 02:57:03;;;;;;;13.02;10.10;;;;;;;13.38;100.00;101763.81;5049769;28;20470;-85
2023/09/03 02:59:31;;;;;;;10.35;8.75;;;;;;;13.35;100.00;101761.13;5018470;28;20061;-83
2023/09/03 03:01:58;;;;;;;12.68;9.82;;;;;;;13.37;100.00;101754.16;5021978;28;20041;-80
2023/09/03 03:04:24;;;;;;;12.48;9.90;;;;;;;13.37;100.00;101762.06;5012629;28;20505;-80
2023/09/03 03:06:51;;;;;;;12.48;10.35;;;;;;;13.36;100.00;101762.91;5032006;28;20151;-81
2023/09/03 03:09:17;;;;;;;11.70;9.52;;;;;;;13.37;100.00;101777.84;5016861;28;20077;-80
2023/09/03 03:11:46;;;;;;;12.13;9.90;;;;;;;13.33;100.00;101773.44;5005494;28;20076;-82
2023/09/03 03:14:14;;;;;;;12.80;8.95;;;;;;;13.30;100.00;101786.59;5039289;28;20128;-80
2023/09/03 03:16:41;;;;;;;14.02;11.02;;;;;;;13.26;100.00;101795.34;5018984;28;20885;-81
2023/09/03 03:19:07;;;;;;;12.45;10.27;;;;;;;13.24;100.00;101804.16;5016109;28;20136;-80
2023/09/03 03:21:34;;;;;;;16.50;10.50;;;;;;;13.25;100.00;101812.91;5050405;28;20037;-87
2023/09/03 03:24:00;;;;;;;14.50;10.02;;;;;;;13.20;100.00;101812.03;5044534;28;20037;-80
2023/09/03 03:26:27;;;;;;;13.25;10.73;;;;;;;13.16;100.00;101818.16;5026720;28;20037;-80
2023/09/03 03:28:56;;;;;;;13.43;10.73;;;;;;;13.13;100.00;101829.56;5024262;28;20102;-81
2023/09/03 03:31:23;;;;;;;14.77;11.30;;;;;;;13.10;100.00;101831.31;5028337;28;20095;-80
2023/09/03 03:33:51;;;;;;;19.05;11.35;;;;;;;13.04;100.00;101830.44;5023269;28;20946;-83
2023/09/03 03:36:20;;;;;;;13.93;10.52;;;;;;;13.01;100.00;101825.19;5023042;28;20041;-81
2023/09/03 03:38:47;;;;;;;12.70;10.60;;;;;;;12.99;100.00;101820.81;5023349;28;20058;-81
2023/09/03 03:41:17;;;;;;;13.02;11.60;;;;;;;12.98;100.00;101829.56;5050633;28;20665;-82
2023/09/03 03:43:48;;;;;;;16.77;11.50;;;;;;;12.98;100.00;101825.16;5016470;28;20099;-82
2023/09/03 03:46:18;;;;;;;18.02;12.40;;;;;;;13.02;100.00;101829.56;5051961;28;20490;-83
2023/09/03 03:48:45;;;;;;;17.77;12.95;;;;;;;13.02;100.00;101831.31;5021613;28;20060;-80
2023/09/03 03:51:12;;;;;;;17.27;11.40;;;;;;;13.03;100.00;101838.31;5035820;28;20129;-81
2023/09/03 03:53:40;;;;;;;18.50;12.30;;;;;;;12.99;100.00;101840.06;5018767;28;20056;-82
2023/09/03 03:56:10;;;;;;;14.35;11.88;;;;;;;12.93;100.00;101837.44;5008959;28;20605;-81
2023/09/03 03:58:40;;;;;;;16.10;12.30;;;;;;;12.91;100.00;101842.69;5016498;28;20088;-81
2023/09/03 04:01:18;;;;;;;18.30;12.90;;;;;;;12.92;100.00;101846.22;5008092;28;20056;-81
2023/09/03 04:03:47;;;;;;;15.88;12.05;;;;;;;12.92;100.00;101843.59;5007299;28;20057;-81
2023/09/03 04:06:13;;;;;;;17.08;12.55;;;;;;;12.91;100.00;101847.94;5037445;28;20455;-80
2023/09/03 04:08:43;;;;;;;18.63;12.85;;;;;;;12.88;100.00;101849.69;5030417;28;20362;-80
2023/09/03 04:11:12;;;;;;;16.35;13.38;;;;;;;12.87;100.00;101854.09;5024172;28;20053;-81
2023/09/03 04:13:40;;;;;;;19.75;13.50;;;;;;;12.88;100.00;101869.00;5015940;28;20045;-80
2023/09/03 04:16:15;;;;;;;16.85;11.95;;;;;;;12.89;100.00;101864.59;5033569;28;20069;-81
2023/09/03 04:18:43;;;;;;;20.23;13.82;;;;;;;12.86;100.00;101870.72;5018212;28;20141;-83
2023/09/03 04:21:10;;;;;;;18.92;14.23;;;;;;;12.82;100.00;101868.09;5022695;28;20053;-85
2023/09/03 04:23:38;;;;;;;18.67;14.00;;;;;;;12.79;100.00;101862.81;5023777;28;20733;-80
2023/09/03 04:26:05;;;;;;;16.92;13.93;;;;;;;12.73;100.00;101850.56;5019644;28;20049;-80
2023/09/03 04:28:32;;;;;;;16.88;12.27;;;;;;;12.69;100.00;101861.94;5021654;28;21036;-87
2023/09/03 04:31:04;;;;;;;21.17;14.98;;;;;;;12.67;100.00;101869.84;5023450;28;20042;-80
2023/09/03 04:33:30;;;;;;;19.63;14.43;;;;;;;12.65;100.00;101863.69;5019093;28;20046;-81
2023/09/03 04:35:59;;;;;;;17.63;14.73;;;;;;;12.64;100.00;101876.84;5027014;28;20392;-80
2023/09/03 04:38:27;;;;;;;19.63;14.23;;;;;;;12.61;100.00;101875.06;5021211;28;20042;-82
2023/09/03 04:40:54;;;;;;;22.80;14.43;;;;;;;12.60;100.00;101877.72;5011527;28;20041;-82
2023/09/03 04:43:21;;;;;;;17.08;13.23;;;;;;;12.56;100.00;101872.41;5026082;28;20734;-81
2023/09/03 04:45:50;;;;;;;21.88;14.48;;;;;;;12.53;100.00;101867.19;5024558;28;20034;-80
2023/09/03 04:48:18;;;;;;;23.35;16.75;;;;;;;12.50;100.00;101867.19;5022211;28;20157;-82
2023/09/03 04:50:45;;;;;;;22.27;15.15;;;;;;;12.49;100.00;101873.31;5027101;28;20053;-81
2023/09/03 04:53:12;;;;;;;23.80;17.05;;;;;;;12.50;100.00;101871.53;5027412;28;20101;-80
2023/09/03 04:55:40;;;;;;;20.38;14.90;;;;;;;12.52;100.00;101885.56;5024277;28;20053;-80
2023/09/03 04:58:07;;;;;;;20.95;16.20;;;;;;;12.55;100.00;101890.81;5028185;28;20048;-81
2023/09/03 05:00:34;;;;;;;23.38;15.02;;;;;;;12.58;100.00;101890.84;5026257;28;20051;-81
2023/09/03 05:03:03;;;;;;;19.73;15.15;;;;;;;12.60;100.00;101893.47;5020191;28;20053;-80
2023/09/03 05:05:30;;;;;;;20.52;14.68;;;;;;;12.65;100.00;101889.09;5015382;28;20096;-81
2023/09/03 05:07:57;;;;;;;19.27;15.63;;;;;;;12.68;100.00;101894.34;5033038;28;20041;-86
2023/09/03 05:10:23;;;;;;;18.67;14.13;;;;;;;12.70;100.00;101904.00;5050289;28;20053;-83
2023/09/03 05:12:49;;;;;;;20.98;14.73;;;;;;;12.72;100.00;101912.75;5043356;28;20041;-80
2023/09/03 05:15:16;;;;;;;22.15;16.52;;;;;;;12.70;100.00;101929.41;5046467;28;20029;-87
2023/09/03 05:17:43;;;;;;;21.92;15.73;;;;;;;12.72;100.00;101927.63;5049973;28;20033;-86
2023/09/03 05:20:10;;;;;;;23.50;16.00;;;;;;;12.72;100.00;101935.50;5041785;28;20079;-86
2023/09/03 05:22:36;;;;;;;21.38;17.05;;;;;;;12.73;100.00;101943.41;5043813;28;20037;-87
2023/09/03 05:25:03;;;;;;;17.63;14.48;;;;;;;12.76;100.00;101958.28;5056778;28;20068;-87
2023/09/03 05:27:30;;;;;;;24.23;17.05;;;;;;;12.84;100.00;101969.72;5065686;28;20029;-86
2023/09/03 05:29:57;;;;;;;21.08;15.45;;;;;;;12.89;100.00;101983.75;5044399;28;20045;-88
2023/09/03 05:32:24;;;;;;;25.27;16.88;;;;;;;12.96;100.00;101994.25;5035522;28;20050;-83
2023/09/03 05:34:51;;;;;;;23.33;16.92;;;;;;;13.00;100.00;101991.66;5020747;28;20127;-80
2023/09/03 05:37:18;;;;;;;20.27;16.02;;;;;;;13.04;100.00;101985.53;5049308;28;20540;-80
2023/09/03 05:39:44;;;;;;;20.50;16.73;;;;;;;13.11;100.00;101983.78;5023726;28;20168;-82
2023/09/03 05:42:11;;;;;;;18.15;13.95;;;;;;;13.18;100.00;101988.19;5026452;28;20045;-80
2023/09/03 05:44:37;;;;;;;21.33;15.55;;;;;;;13.24;100.00;101979.44;5024802;28;20041;-80
2023/09/03 05:47:04;;;;;;;17.98;13.25;;;;;;;13.34;100.00;101982.97;5021346;28;20041;-80
2023/09/03 05:49:30;;;;;;;28.02;17.02;;;;;;;13.38;100.00;101980.34;5025203;28;20153;-81
2023/09/03 05:51:57;;;;;;;18.83;14.65;;;;;;;13.47;100.00;101981.25;5008472;28;20079;-82
2023/09/03 05:54:23;;;;;;;24.48;16.15;;;;;;;13.52;100.00;101992.66;5011859;28;20053;-80
2023/09/03 05:56:50;;;;;;;18.92;14.27;;;;;;;13.56;100.00;101986.50;5016673;28;20129;-81
2023/09/03 05:59:16;;;;;;;24.00;14.95;;;;;;;13.64;100.00;101978.63;5020505;28;20409;-81
2023/09/03 06:01:43;;;;;;;22.10;15.57;;;;;;;13.69;100.00;101993.50;5023307;28;20132;-82
2023/09/03 06:04:14;;;;;;;19.08;13.95;;;;;;;13.79;100.00;101990.88;5018770;28;20056;-80
2023/09/03 06:06:41;;;;;;;20.63;15.35;;;;;;;13.86;100.00;101995.28;5029393;28;20132;-83
2023/09/03 06:09:08;;;;;;;20.73;15.45;;;;;;;13.89;100.00;101992.63;5022492;28;20091;-81
2023/09/03 06:11:35;;;;;;;25.70;15.52;;;;;;;13.96;100.00;101988.22;5026285;28;20049;-87
2023/09/03 06:14:02;;;;;;;22.25;16.08;;;;;;;14.04;100.00;101989.06;5034604;28;20091;-81
2023/09/03 06:16:29;;;;;;;18.70;15.45;;;;;;;14.15;100.00;102003.09;5021191;28;20099;-81
2023/09/03 06:18:56;;;;;;;20.73;14.27;;;;;;;14.26;100.00;102003.06;5018101;28;20082;-82
2023/09/03 06:21:24;;;;;;;19.40;14.93;;;;;;;14.32;100.00;102013.59;5010985;28;20073;-80
2023/09/03 06:23:50;;;;;;;21.25;14.65;;;;;;;14.35;100.00;102004.81;5021889;28;20754;-81
2023/09/03 06:26:17;;;;;;;19.13;14.77;;;;;;;14.44;100.00;102015.31;5025609;28;20045;-85
2023/09/03 06:28:44;;;;;;;21.67;14.75;;;;;;;14.47;100.00;102017.97;5015144;28;20103;-80
2023/09/03 06:31:10;;;;;;;22.20;15.35;;;;;;;14.50;100.00;102020.56;5025147;28;20497;-80
2023/09/03 06:33:37;;;;;;;20.90;15.75;;;;;;;14.54;100.00;102018.81;5021799;28;20152;-86
2023/09/03 06:36:04;;;;;;;19.92;13.88;;;;;;;14.62;100.00;102010.88;5022116;28;20068;-84
2023/09/03 06:38:30;;;;;;;20.75;14.55;;;;;;;15.67;100.00;102010.22;5025007;28;20045;-80
2023/09/03 06:40:57;;;;;;;22.38;14.48;;;;;;;18.42;97.39;102010.88;5026069;28;20044;-86
2023/09/03 06:43:23;;;;;;;20.15;13.85;;;;;;;19.88;88.92;102008.44;5023382;28;20124;-83
2023/09/03 06:45:50;;;;;;;17.73;12.73;;;;;;;20.87;84.00;102014.56;5024627;28;20045;-81
2023/09/03 06:48:16;;;;;;;19.58;13.95;;;;;;;22.02;77.28;102009.06;5026552;28;20052;-82
2023/09/03 06:50:43;;;;;;;15.95;12.23;;;;;;;22.91;69.83;102009.34;5007469;28;20052;-80
2023/09/03 06:53:10;;;;;;;14.98;9.85;;;;;;;23.40;67.02;102009.19;5024850;28;20042;-81
2023/09/03 06:55:37;;;;;;;13.68;9.55;;;;;;;23.46;62.65;102009.78;5054644;28;20053;-88
2023/09/03 06:58:04;;;;;;;14.00;9.57;;;;;;;23.71;63.37;102023.94;5025172;28;20068;-81
2023/09/03 07:00:31;;;;;;;15.40;11.80;;;;;;;24.03;61.75;102019.91;5023872;28;20394;-81
2023/09/03 07:02:57;;;;;;;12.57;11.27;;;;;;;23.28;63.64;102027.47;5017921;28;20080;-80
2023/09/03 07:05:26;;;;;;;13.38;10.38;;;;;;;22.22;69.46;102028.81;5026968;28;20048;-84
2023/09/03 07:07:53;;;;;;;14.98;10.50;;;;;;;20.85;75.21;102023.50;5023817;28;20037;-81
2023/09/03 07:10:19;;;;;;;11.50;10.30;;;;;;;19.99;80.04;102017.03;5026382;28;20041;-83
2023/09/03 07:12:46;;;;;;;12.98;10.52;;;;;;;19.71;81.39;102016.84;5021701;28;20603;-81
2023/09/03 07:15:12;;;;;;;13.60;9.93;;;;;;;19.80;81.80;102027.22;5026351;28;20041;-81
2023/09/03 07:17:39;;;;;;;11.00;9.90;;;;;;;21.13;73.95;102028.84;5007737;28;20065;-83
2023/09/03 07:20:07;;;;;;;11.02;9.32;;;;;;;22.20;68.79;102030.63;5037715;28;20113;-84
2023/09/03 07:22:33;;;;;;;12.63;10.25;;;;;;;22.51;64.95;102033.09;5026213;28;20622;-84
2023/09/03 07:25:00;;;;;;;10.73;9.27;;;;;;;22.59;65.65;102043.47;5019162;28;20647;-81
2023/09/03 07:27:26;;;;;;;11.05;9.02;;;;;;;23.83;59.99;102039.47;5037984;28;20045;-81
2023/09/03 07:29:54;;;;;;;13.75;9.48;;;;;;;24.46;56.30;102051.91;5022537;28;20124;-83
2023/09/03 07:32:23;;;;;;;11.15;9.77;;;;;;;23.88;57.26;102053.47;5027477;28;20041;-82
2023/09/03 07:34:54;;;;;;;10.13;8.25;;;;;;;23.34;59.82;102058.41;5038148;28;20049;-87
2023/09/03 07:37:22;;;;;;;9.50;8.07;;;;;;;23.00;62.17;102046.38;5015528;28;20030;-83
2023/09/03 07:39:49;;;;;;;9.93;8.88;;;;;;;22.53;63.52;102052.59;5060105;28;20454;-80
2023/09/03 07:42:15;;;;;;;12.23;9.82;;;;;;;22.49;62.92;102045.63;5028018;28;20500;-82
2023/09/03 07:44:42;;;;;;;10.95;8.50;;;;;;;22.69;62.52;102047.53;5024296;28;20038;-82
2023/09/03 07:47:08;;;;;;;8.85;7.95;;;;;;;22.46;64.91;102049.28;5027012;28;20484;-82
2023/09/03 07:49:35;;;;;;;10.38;8.35;;;;;;;21.97;65.74;102053.66;5019546;28;20045;-82
2023/09/03 07:52:02;;;;;;;8.70;6.88;;;;;;;21.23;69.26;102054.25;5021459;28;20505;-82
2023/09/03 07:54:28;;;;;;;6.90;6.30;;;;;;;21.11;70.04;102062.66;5023473;28;20488;-84
2023/09/03 07:56:55;;;;;;;13.18;7.78;;;;;;;20.96;70.54;102067.53;5022938;28;20033;-81
2023/09/03 07:59:21;;;;;;;8.70;7.63;;;;;;;20.95;69.26;102068.44;5017684;28;20062;-82
2023/09/03 08:01:48;;;;;;;6.65;5.95;;;;;;;20.94;71.52;102071.16;5023773;28;20477;-81
2023/09/03 08:04:14;;;;;;;11.75;7.22;;;;;;;21.52;68.02;102070.25;5035776;28;20138;-81
2023/09/03 08:06:41;;;;;;;9.93;6.70;;;;;;;21.32;69.31;102067.28;5025592;28;20045;-85
2023/09/03 08:09:08;;;;;;;7.28;5.32;;;;;;;21.58;66.62;102076.28;5019223;28;20486;-84
2023/09/03 08:11:36;;;;;;;4.78;4.30;;;;;;;21.65;65.77;102066.28;5024454;28;20045;-83
2023/09/03 08:14:03;;;;;;;7.18;5.32;;;;;;;21.77;64.22;102062.31;5019311;28;20029;-82
2023/09/03 08:16:30;;;;;;;6.68;5.40;;;;;;;21.73;64.54;102050.91;5018229;28;20049;-85
2023/09/03 08:18:56;;;;;;;5.70;5.03;;;;;;;21.75;66.14;102053.53;5021080;28;20049;-82
2023/09/03 08:21:23;;;;;;;5.45;4.65;;;;;;;22.84;61.01;102061.22;5025728;28;20068;-82
2023/09/03 08:23:49;;;;;;;7.13;4.93;;;;;;;23.17;57.78;102069.78;5022929;28;20041;-81
2023/09/03 08:26:16;;;;;;;9.02;5.47;;;;;;;23.37;57.83;102073.44;5023828;28;20485;-82
2023/09/03 08:28:42;;;;;;;6.63;4.93;;;;;;;23.56;57.14;102073.56;4991933;28;20446;-84
2023/09/03 08:31:09;;;;;;;10.85;5.40;;;;;;;23.66;57.16;102079.41;5031554;28;20048;-83
2023/09/03 08:33:37;;;;;;;6.10;5.40;;;;;;;23.81;56.69;102085.94;5017028;28;20370;-82
2023/09/03 08:36:04;;;;;;;6.82;4.70;;;;;;;24.64;54.08;102089.50;5033583;28;20493;-84
2023/09/03 08:38:32;;;;;;;7.70;4.15;;;;;;;24.79;52.49;102088.78;5007405;28;20041;-82
2023/09/03 08:41:01;;;;;;;5.93;2.92;;;;;;;24.68;51.47;102080.38;5005615;28;20346;-82
2023/09/03 08:43:29;;;;;;;4.63;2.97;;;;;;;23.50;55.20;102079.16;5052313;28;20401;-81
2023/09/03 08:45:59;;;;;;;3.03;2.70;;;;;;;23.59;55.37;102089.47;5023118;28;20057;-83
2023/09/03 08:48:26;;;;;;;3.70;2.78;;;;;;;24.73;50.88;102087.28;5055274;28;20046;-82
2023/09/03 08:50:52;;;;;;;3.25;2.22;;;;;;;24.81;51.03;102086.03;5020900;28;20419;-81
2023/09/03 08:53:22;;;;;;;7.07;4.53;;;;;;;24.50;51.27;102088.28;5039811;28;20124;-82
2023/09/03 08:55:49;;;;;;;6.90;3.83;;;;;;;23.97;54.87;102091.53;5053354;28;20062;-82
2023/09/03 08:58:16;;;;;;;1.80;1.70;;;;;;;25.04;51.17;102091.19;5024640;28;20100;-82
2023/09/03 09:00:43;;;;;;;2.58;2.15;;;;;;;24.71;49.19;102094.50;5024713;28;20033;-83
2023/09/03 09:03:11;;;;;;;3.85;1.90;;;;;;;24.53;50.73;102085.47;5023557;28;20042;-82
2023/09/03 09:05:42;;;;;;;5.05;2.60;;;;;;;24.98;49.94;102078.09;5005798;28;20042;-84
2023/09/03 09:08:09;;;;;;;3.58;2.70;;;;;;;24.69;49.69;102085.69;5051597;28;20056;-81
2023/09/03 09:10:40;;;;;;;2.90;2.42;;;;;;;24.72;48.92;102090.03;5025464;28;20077;-85
2023/09/03 09:13:11;;;;;;;3.10;1.92;;;;;;;24.97;47.87;102092.44;5022869;28;20346;-81
2023/09/03 09:15:42;;;;;;;5.57;2.15;;;;;;;25.65;45.97;102089.19;5024862;28;20133;-82
2023/09/03 09:18:12;;;;;;;1.60;1.50;;;;;;;25.84;45.87;102088.25;5018216;28;20052;-86
2023/09/03 09:20:39;;;;;;;2.80;2.10;;;;;;;25.84;44.44;102085.56;5024022;28;20123;-86
2023/09/03 09:23:07;;;;;;;3.13;2.05;;;;;;;25.72;45.49;102082.59;5022733;28;20072;-82
2023/09/03 09:25:37;;;;;;;2.70;2.20;;;;;;;25.96;45.52;102092.13;5022576;28;20053;-82
2023/09/03 09:28:13;;;;;;;1.48;1.38;;;;;;;26.08;42.35;102086.16;5019383;28;20042;-84
2023/09/03 09:31:12;;;;;;;1.92;1.83;;;;;;;26.01;41.83;102092.75;5019245;28;20050;-84
2023/09/03 09:33:51;;;;;;;1.58;1.48;;;;;;;25.45;42.54;102089.28;4996674;28;20512;-82
2023/09/03 09:36:17;;;;;;;4.00;1.92;;;;;;;25.05;44.22;102097.44;5026456;28;20050;-82
2023/09/03 09:38:45;;;;;;;2.58;1.15;;;;;;;25.30;44.16;102099.78;5026646;28;20025;-85
2023/09/03 09:41:27;;;;;;;2.28;2.17;;;;;;;25.67;43.81;102107.88;5044065;28;20081;-87
2023/09/03 09:43:54;;;;;;;5.20;2.03;;;;;;;26.16;42.40;102105.41;5034860;28;20529;-83
2023/09/03 09:46:35;;;;;;;2.13;1.48;;;;;;;25.87;43.46;102101.53;5025480;28;20457;-82
2023/09/03 09:49:03;;;;;;;2.95;1.60;;;;;;;26.53;42.35;102097.22;5028916;28;20412;-82
2023/09/03 09:51:31;;;;;;;1.50;1.40;;;;;;;27.03;41.50;102093.63;5022963;28;20052;-83
2023/09/03 09:54:02;;;;;;;2.63;1.55;;;;;;;27.45;40.27;102085.91;5026936;28;20413;-86
2023/09/03 09:56:34;;;;;;;2.05;1.40;;;;;;;27.49;39.81;102083.94;5014586;28;20482;-83
2023/09/03 09:59:02;;;;;;;1.45;1.30;;;;;;;27.37;40.10;102077.41;5019290;28;20391;-85
2023/09/03 10:01:49;;;;;;;2.58;2.30;;;;;;;25.90;41.29;102079.91;5023122;28;20178;-85
2023/09/03 10:04:26;;;;;;;1.55;1.45;;;;;;;25.84;42.62;102069.47;5043621;28;20041;-83
2023/09/03 10:06:53;;;;;;;1.33;1.17;;;;;;;26.80;41.47;102073.41;5005535;28;20398;-82
2023/09/03 10:09:20;;;;;;;1.45;1.35;;;;;;;28.00;39.34;102070.16;5023470;28;20130;-83
2023/09/03 10:11:47;;;;;;;1.35;1.25;;;;;;;28.86;38.03;102072.06;5025644;28;20195;-83
2023/09/03 10:14:13;;;;;;;3.55;1.58;;;;;;;28.50;38.47;102073.41;5043295;28;20050;-85
2023/09/03 10:16:40;;;;;;;1.23;1.10;;;;;;;29.91;36.52;102076.00;5046353;28;20053;-83
2023/09/03 10:19:11;;;;;;;1.90;0.95;;;;;;;30.04;35.50;102070.63;5028744;28;20048;-83
2023/09/03 10:21:40;;;;;;;1.38;1.30;;;;;;;28.86;36.02;102069.38;5027301;28;20049;-84
2023/09/03 10:24:08;;;;;;;1.42;1.27;;;;;;;28.06;38.08;102072.53;5028083;28;20091;-83
2023/09/03 10:26:42;;;;;;;1.77;1.15;;;;;;;28.44;37.44;102076.50;5025764;28;20045;-84
2023/09/03 10:29:13;;;;;;;2.35;1.27;;;;;;;28.79;37.22;102093.16;5032103;28;20042;-87
2023/09/03 10:31:40;;;;;;;1.15;1.05;;;;;;;28.76;37.74;102090.69;5027446;28;20045;-85
2023/09/03 10:34:15;;;;;;;2.53;1.00;;;;;;;29.20;35.63;102091.44;5027984;28;20049;-86
2023/09/03 10:37:08;;;;;;;2.22;0.73;;;;;;;28.45;35.59;102087.19;5029707;28;20038;-85
2023/09/03 10:39:36;;;;;;;2.63;1.02;;;;;;;27.79;36.99;102100.09;5025492;28;20137;-85
2023/09/03 10:42:29;;;;;;;1.30;0.95;;;;;;;28.11;35.48;102096.44;5028633;28;20041;-84
2023/09/03 10:44:58;;;;;;;2.15;1.38;;;;;;;27.76;36.89;102094.03;5029091;28;20088;-82
2023/09/03 10:47:25;;;;;;;2.40;1.45;;;;;;;27.26;37.50;102096.84;5029280;28;20033;-83
2023/09/03 10:49:55;;;;;;;2.20;1.63;;;;;;;27.25;37.67;102089.75;5028011;28;20131;-84
2023/09/03 10:52:31;;;;;;;2.58;1.63;;;;;;;27.25;38.14;102092.44;5027978;28;20041;-83
2023/09/03 10:55:21;;;;;;;1.95;1.77;;;;;;;27.27;37.69;102098.56;5030848;28;20525;-84
2023/09/03 10:58:21;;;;;;;0.88;0.88;;;;;;;27.77;36.77;102098.44;5027551;28;20089;-85
2023/09/03 11:01:24;;;;;;;1.98;1.27;;;;;;;28.23;36.32;102107.34;5021656;28;20153;-87
2023/09/03 11:03:53;;;;;;;1.67;0.95;;;;;;;28.70;35.75;102108.09;5022456;28;20049;-82
2023/09/03 11:06:22;;;;;;;1.25;1.13;;;;;;;28.38;35.92;102112.75;5021768;28;20116;-84
2023/09/03 11:09:09;;;;;;;1.88;1.15;;;;;;;27.46;35.91;102111.88;5020540;28;20056;-84
2023/09/03 11:11:38;;;;;;;1.42;1.00;;;;;;;27.28;35.58;102120.97;5021909;28;20066;-82
2023/09/03 11:14:06;;;;;;;0.80;0.80;;;;;;;27.26;36.25;102113.00;5010969;28;20045;-87
2023/09/03 11:16:39;;;;;;;1.92;1.15;;;;;;;27.52;35.82;102114.22;5026141;28;20071;-84
2023/09/03 11:19:07;;;;;;;;;;;;;;;28.05;34.06;102109.31;5024231;28;20615;-83
2023/09/03 11:21:38;;;;;;;1.88;1.00;;;;;;;28.77;33.31;102105.00;5028023;28;19921;-83
2023/09/03 11:24:15;;;;;;;1.10;0.98;;;;;;;29.48;32.49;102104.00;5026490;28;20084;-84